sensor_id;sensor_type;location;lat;lon;timestamp;pressure;altitude;pressure_sealevel;temperature;humidity
78123;BME280;67376;44.802;10.332;2023-03-14T00:00:58;100300.81;;;19.77;46.49
78123;BME280;67376;44.802;10.332;2023-03-14T00:03:23;100292.44;;;19.78;46.56
78123;BME280;67376;44.802;10.332;2023-03-14T00:05:49;100294.56;;;19.76;46.72
78123;BME280;67376;44.802;10.332;2023-03-14T00:08:14;100279.38;;;19.75;46.24
78123;BME280;67376;44.802;10.332;2023-03-14T00:10:40;100285.38;;;19.77;46.03
78123;BME280;67376;44.802;10.332;2023-03-14T00:13:05;100289.72;;;19.78;46.72
78123;BME280;67376;44.802;10.332;2023-03-14T00:15:33;100288.91;;;19.78;46.45
78123;BME280;67376;44.802;10.332;2023-03-14T00:17:58;100289.97;;;19.77;45.93
78123;BME280;67376;44.802;10.332;2023-03-14T00:20:24;100293.25;;;19.79;46.26
78123;BME280;67376;44.802;10.332;2023-03-14T00:22:49;100279.72;;;19.79;45.80
78123;BME280;67376;44.802;10.332;2023-03-14T00:25:15;100274.28;;;19.79;46.15
78123;BME280;67376;44.802;10.332;2023-03-14T00:27:40;100267.25;;;19.78;45.90
78123;BME280;67376;44.802;10.332;2023-03-14T00:30:06;100256.41;;;19.78;46.56
78123;BME280;67376;44.802;10.332;2023-03-14T00:32:33;100241.78;;;19.79;46.59
78123;BME280;67376;44.802;10.332;2023-03-14T00:34:58;100216.59;;;19.78;46.21
78123;BME280;67376;44.802;10.332;2023-03-14T00:37:26;100223.91;;;19.78;46.54
78123;BME280;67376;44.802;10.332;2023-03-14T00:39:51;100216.84;;;19.77;45.84
78123;BME280;67376;44.802;10.332;2023-03-14T00:42:17;100221.44;;;19.76;46.04
78123;BME280;67376;44.802;10.332;2023-03-14T00:44:43;100230.38;;;19.77;46.17
78123;BME280;67376;44.802;10.332;2023-03-14T00:47:08;100229.31;;;19.78;45.92
78123;BME280;67376;44.802;10.332;2023-03-14T00:49:34;100220.38;;;19.77;45.69
78123;BME280;67376;44.802;10.332;2023-03-14T00:51:59;100220.38;;;19.77;46.71
78123;BME280;67376;44.802;10.332;2023-03-14T00:54:25;100217.66;;;19.77;45.73
78123;BME280;67376;44.802;10.332;2023-03-14T00:56:50;100218.47;;;19.78;46.32
78123;BME280;67376;44.802;10.332;2023-03-14T00:59:16;100213.88;;;19.78;45.92
78123;BME280;67376;44.802;10.332;2023-03-14T01:01:43;100207.66;;;19.78;45.76
78123;BME280;67376;44.802;10.332;2023-03-14T01:04:08;100199.75;;;19.76;45.72
78123;BME280;67376;44.802;10.332;2023-03-14T01:06:34;100191.63;;;19.76;46.53
78123;BME280;67376;44.802;10.332;2023-03-14T01:08:59;100202.22;;;19.78;45.85
78123;BME280;67376;44.802;10.332;2023-03-14T01:11:31;100204.13;;;19.77;46.31
78123;BME280;67376;44.802;10.332;2023-03-14T01:13:57;100206.81;;;19.77;46.11
78123;BME280;67376;44.802;10.332;2023-03-14T01:16:25;100200.34;;;19.78;46.43
78123;BME280;67376;44.802;10.332;2023-03-14T01:18:51;100208.72;;;19.77;46.36
78123;BME280;67376;44.802;10.332;2023-03-14T01:23:45;100189.50;;;19.78;45.79
78123;BME280;67376;44.802;10.332;2023-03-14T01:26:13;100189.50;;;19.78;45.85
78123;BME280;67376;44.802;10.332;2023-03-14T01:28:39;100194.94;;;19.78;46.26
78123;BME280;67376;44.802;10.332;2023-03-14T01:31:07;100193.03;;;19.79;46.44
78123;BME280;67376;44.802;10.332;2023-03-14T01:33:33;100179.75;;;19.77;46.01
78123;BME280;67376;44.802;10.332;2023-03-14T01:35:59;100166.44;;;19.76;46.23
78123;BME280;67376;44.802;10.332;2023-03-14T01:38:24;100152.91;;;19.76;45.94
78123;BME280;67376;44.802;10.332;2023-03-14T01:40:50;100125.81;;;19.76;45.46
78123;BME280;67376;44.802;10.332;2023-03-14T01:43:18;100132.28;;;19.75;46.43
78123;BME280;67376;44.802;10.332;2023-03-14T01:51:05;100130.41;;;19.75;45.51
78123;BME280;67376;44.802;10.332;2023-03-14T01:53:31;100120.41;;;19.76;46.59
78123;BME280;67376;44.802;10.332;2023-03-14T01:55:57;100107.09;;;19.74;45.84
78123;BME280;67376;44.802;10.332;2023-03-14T01:58:24;100097.09;;;19.75;46.45
78123;BME280;67376;44.802;10.332;2023-03-14T02:00:53;100084.13;;;19.77;46.47
78123;BME280;67376;44.802;10.332;2023-03-14T02:03:20;100083.53;;;19.75;46.29
78123;BME280;67376;44.802;10.332;2023-03-14T02:05:47;100066.22;;;19.76;45.45
78123;BME280;67376;44.802;10.332;2023-03-14T02:08:15;100077.06;;;19.76;46.01
78123;BME280;67376;44.802;10.332;2023-03-14T02:10:47;100081.66;;;19.75;45.67
78123;BME280;67376;44.802;10.332;2023-03-14T02:13:15;100068.09;;;19.75;46.25
78123;BME280;67376;44.802;10.332;2023-03-14T02:15:41;100062.13;;;19.73;45.50
78123;BME280;67376;44.802;10.332;2023-03-14T02:18:07;100056.47;;;19.75;45.73
78123;BME280;67376;44.802;10.332;2023-03-14T02:26:02;100064.59;;;19.75;46.33
78123;BME280;67376;44.802;10.332;2023-03-14T02:28:31;100064.81;;;19.73;45.56
78123;BME280;67376;44.802;10.332;2023-03-14T02:30:56;100059.16;;;19.75;45.94
78123;BME280;67376;44.802;10.332;2023-03-14T02:33:23;100046.69;;;19.74;45.97
78123;BME280;67376;44.802;10.332;2023-03-14T02:35:59;100036.69;;;19.74;45.85
78123;BME280;67376;44.802;10.332;2023-03-14T02:41:18;100020.44;;;19.74;45.88
78123;BME280;67376;44.802;10.332;2023-03-14T02:43:43;100027.72;;;19.74;45.47
78123;BME280;67376;44.802;10.332;2023-03-14T02:46:14;100032.31;;;19.73;45.62
78123;BME280;67376;44.802;10.332;2023-03-14T02:49:07;100049.41;;;19.74;45.54
78123;BME280;67376;44.802;10.332;2023-03-14T02:51:35;100022.31;;;19.74;45.71
78123;BME280;67376;44.802;10.332;2023-03-14T02:54:01;100054.00;;;19.73;45.21
78123;BME280;67376;44.802;10.332;2023-03-14T02:56:26;100034.22;;;19.73;45.52
78123;BME280;67376;44.802;10.332;2023-03-14T02:58:52;100027.97;;;19.72;46.10
78123;BME280;67376;44.802;10.332;2023-03-14T03:01:17;100028.81;;;19.73;46.09
78123;BME280;67376;44.802;10.332;2023-03-14T03:03:42;100026.91;;;19.73;45.49
78123;BME280;67376;44.802;10.332;2023-03-14T03:06:08;100007.13;;;19.73;45.92
78123;BME280;67376;44.802;10.332;2023-03-14T03:08:34;99991.13;;;19.71;45.46
78123;BME280;67376;44.802;10.332;2023-03-14T03:10:59;99998.44;;;19.71;46.07
78123;BME280;67376;44.802;10.332;2023-03-14T03:13:25;99979.22;;;19.72;45.23
78123;BME280;67376;44.802;10.332;2023-03-14T03:15:52;99970.28;;;19.72;45.40
78123;BME280;67376;44.802;10.332;2023-03-14T03:18:17;99979.22;;;19.72;45.63
78123;BME280;67376;44.802;10.332;2023-03-14T03:20:43;99958.06;;;19.69;45.36
78123;BME280;67376;44.802;10.332;2023-03-14T03:23:08;99936.16;;;19.71;45.58
78123;BME280;67376;44.802;10.332;2023-03-14T03:25:34;99940.75;;;19.70;45.33
78123;BME280;67376;44.802;10.332;2023-03-14T03:28:01;99940.75;;;19.70;45.74
78123;BME280;67376;44.802;10.332;2023-03-14T03:30:27;99932.06;;;19.68;45.52
78123;BME280;67376;44.802;10.332;2023-03-14T03:32:52;99936.16;;;19.71;45.39
78123;BME280;67376;44.802;10.332;2023-03-14T03:35:18;99941.56;;;19.71;45.52
78123;BME280;67376;44.802;10.332;2023-03-14T03:37:43;99945.09;;;19.71;46.00
78123;BME280;67376;44.802;10.332;2023-03-14T03:40:09;99926.13;;;19.71;45.64
78123;BME280;67376;44.802;10.332;2023-03-14T03:42:35;99922.59;;;19.71;45.51
78123;BME280;67376;44.802;10.332;2023-03-14T03:45:03;99875.19;;;19.68;45.64
78123;BME280;67376;44.802;10.332;2023-03-14T03:47:30;99858.13;;;19.68;45.89
78123;BME280;67376;44.802;10.332;2023-03-14T03:49:56;99783.94;;;19.69;45.88
78123;BME280;67376;44.802;10.332;2023-03-14T03:52:21;99731.09;;;19.66;45.47
78123;BME280;67376;44.802;10.332;2023-03-14T03:54:47;99758.72;;;19.68;46.00
78123;BME280;67376;44.802;10.332;2023-03-14T03:57:12;99769.56;;;19.68;45.76
78123;BME280;67376;44.802;10.332;2023-03-14T03:59:37;99779.56;;;19.63;45.14
78123;BME280;67376;44.802;10.332;2023-03-14T04:02:05;99792.03;;;19.69;45.93
78123;BME280;67376;44.802;10.332;2023-03-14T04:04:31;99811.81;;;19.69;46.18
78123;BME280;67376;44.802;10.332;2023-03-14T04:06:56;99822.91;;;19.68;44.99
78123;BME280;67376;44.802;10.332;2023-03-14T04:09:22;99823.72;;;19.68;45.04
78123;BME280;67376;44.802;10.332;2023-03-14T04:11:47;99809.13;;;19.69;46.08
78123;BME280;67376;44.802;10.332;2023-03-14T04:14:13;99822.09;;;19.67;45.55
78123;BME280;67376;44.802;10.332;2023-03-14T04:16:38;99848.91;;;19.69;44.93
78123;BME280;67376;44.802;10.332;2023-03-14T04:19:03;99836.19;;;19.69;44.86
78123;BME280;67376;44.802;10.332;2023-03-14T04:21:29;99839.97;;;19.68;45.72
78123;BME280;67376;44.802;10.332;2023-03-14T04:23:55;99835.63;;;19.67;45.66
78123;BME280;67376;44.802;10.332;2023-03-14T04:26:20;99763.84;;;19.65;45.66
78123;BME280;67376;44.802;10.332;2023-03-14T04:28:46;99801.50;;;19.66;46.20
78123;BME280;67376;44.802;10.332;2023-03-14T04:31:18;99834.81;;;19.67;45.57
78123;BME280;67376;44.802;10.332;2023-03-14T04:33:44;99806.91;;;19.66;45.91
78123;BME280;67376;44.802;10.332;2023-03-14T04:36:10;99769.25;;;19.65;46.07
78123;BME280;67376;44.802;10.332;2023-03-14T04:38:35;99766.53;;;19.65;45.96
78123;BME280;67376;44.802;10.332;2023-03-14T04:41:01;99704.28;;;19.65;45.33
78123;BME280;67376;44.802;10.332;2023-03-14T04:43:27;99734.63;;;19.67;45.38
78123;BME280;67376;44.802;10.332;2023-03-14T04:45:54;99725.94;;;19.65;45.72
78123;BME280;67376;44.802;10.332;2023-03-14T04:48:20;99731.09;;;19.66;46.17
78123;BME280;67376;44.802;10.332;2023-03-14T04:50:51;99720.25;;;19.66;45.30
78123;BME280;67376;44.802;10.332;2023-03-14T04:53:17;99679.09;;;19.64;45.04
78123;BME280;67376;44.802;10.332;2023-03-14T04:55:48;99708.59;;;19.66;45.21
78123;BME280;67376;44.802;10.332;2023-03-14T04:58:14;99714.03;;;19.66;45.55
78123;BME280;67376;44.802;10.332;2023-03-14T05:00:39;99693.19;;;19.66;46.30
78123;BME280;67376;44.802;10.332;2023-03-14T05:03:05;99702.38;;;19.65;46.07
78123;BME280;67376;44.802;10.332;2023-03-14T05:05:31;99724.03;;;19.65;45.63
78123;BME280;67376;44.802;10.332;2023-03-14T05:07:56;99740.03;;;19.67;45.77
78123;BME280;67376;44.802;10.332;2023-03-14T05:10:22;99762.78;;;19.66;45.97
78123;BME280;67376;44.802;10.332;2023-03-14T05:12:47;99751.13;;;19.65;46.19
78123;BME280;67376;44.802;10.332;2023-03-14T05:15:13;99757.34;;;19.66;45.83
78123;BME280;67376;44.802;10.332;2023-03-14T05:17:38;99789.84;;;19.66;45.70
78123;BME280;67376;44.802;10.332;2023-03-14T05:20:04;99798.78;;;19.66;45.50
78123;BME280;67376;44.802;10.332;2023-03-14T05:22:38;99819.63;;;19.66;45.49
78123;BME280;67376;44.802;10.332;2023-03-14T05:25:05;99809.88;;;19.65;45.97
78123;BME280;67376;44.802;10.332;2023-03-14T05:27:31;99818.00;;;19.65;46.34
78123;BME280;67376;44.802;10.332;2023-03-14T05:29:57;99826.13;;;19.65;45.59
78123;BME280;67376;44.802;10.332;2023-03-14T05:32:22;99815.28;;;19.65;45.97
78123;BME280;67376;44.802;10.332;2023-03-14T05:34:48;99813.41;;;19.65;45.80
78123;BME280;67376;44.802;10.332;2023-03-14T05:37:13;99823.97;;;19.67;45.70
78123;BME280;67376;44.802;10.332;2023-03-14T05:39:39;99821.53;;;19.65;45.43
78123;BME280;67376;44.802;10.332;2023-03-14T05:42:04;99807.97;;;19.65;46.09
78123;BME280;67376;44.802;10.332;2023-03-14T05:44:30;99812.31;;;19.61;46.30
78123;BME280;67376;44.802;10.332;2023-03-14T05:46:55;99845.22;;;19.53;46.35
78123;BME280;67376;44.802;10.332;2023-03-14T05:49:20;99830.63;;;19.54;45.80
78123;BME280;67376;44.802;10.332;2023-03-14T05:51:46;99827.66;;;19.56;46.55
78123;BME280;67376;44.802;10.332;2023-03-14T05:54:11;99823.63;;;19.58;46.49
78123;BME280;67376;44.802;10.332;2023-03-14T05:56:37;99809.84;;;19.60;45.64
78123;BME280;67376;44.802;10.332;2023-03-14T05:59:02;99817.97;;;19.60;46.20
78123;BME280;67376;44.802;10.332;2023-03-14T06:01:29;99827.47;;;19.62;46.45
78123;BME280;67376;44.802;10.332;2023-03-14T06:03:54;99838.31;;;19.62;46.38
78123;BME280;67376;44.802;10.332;2023-03-14T06:06:19;99829.13;;;19.63;46.69
78123;BME280;67376;44.802;10.332;2023-03-14T06:08:45;99826.13;;;19.65;46.57
78123;BME280;67376;44.802;10.332;2023-03-14T06:11:10;99824.53;;;19.64;45.70
78123;BME280;67376;44.802;10.332;2023-03-14T06:13:36;99801.22;;;19.63;45.83
78123;BME280;67376;44.802;10.332;2023-03-14T06:16:01;99788.22;;;19.65;46.97
78123;BME280;67376;44.802;10.332;2023-03-14T06:18:26;99784.69;;;19.64;46.06
78123;BME280;67376;44.802;10.332;2023-03-14T06:20:56;99788.22;;;19.65;46.58
78123;BME280;67376;44.802;10.332;2023-03-14T06:23:22;99787.41;;;19.64;46.67
78123;BME280;67376;44.802;10.332;2023-03-14T06:25:48;99794.44;;;19.65;46.30
78123;BME280;67376;44.802;10.332;2023-03-14T06:28:13;99775.50;;;19.65;46.19
78123;BME280;67376;44.802;10.332;2023-03-14T06:30:39;99765.72;;;19.64;46.34
78123;BME280;67376;44.802;10.332;2023-03-14T06:33:05;99764.66;;;19.65;46.84
78123;BME280;67376;44.802;10.332;2023-03-14T06:35:30;99735.94;;;19.64;46.69
78123;BME280;67376;44.802;10.332;2023-03-14T06:37:55;99733.25;;;19.64;46.58
78123;BME280;67376;44.802;10.332;2023-03-14T06:40:21;99745.69;;;19.65;46.35
78123;BME280;67376;44.802;10.332;2023-03-14T06:42:47;99746.53;;;19.66;46.62
78123;BME280;67376;44.802;10.332;2023-03-14T06:45:13;99744.88;;;19.65;47.26
78123;BME280;67376;44.802;10.332;2023-03-14T06:47:39;99749.22;;;19.66;47.20
78123;BME280;67376;44.802;10.332;2023-03-14T06:50:08;99764.16;;;19.68;46.72
78123;BME280;67376;44.802;10.332;2023-03-14T06:52:33;99750.78;;;19.13;47.51
78123;BME280;67376;44.802;10.332;2023-03-14T06:54:59;99756.97;;;18.03;50.90
78123;BME280;67376;44.802;10.332;2023-03-14T06:57:24;99753.56;;;17.50;52.52
78123;BME280;67376;44.802;10.332;2023-03-14T06:59:50;99755.91;;;17.87;51.52
78123;BME280;67376;44.802;10.332;2023-03-14T07:02:15;99758.47;;;17.65;51.89
78123;BME280;67376;44.802;10.332;2023-03-14T07:04:41;99750.75;;;17.57;52.12
78123;BME280;67376;44.802;10.332;2023-03-14T07:07:07;99751.25;;;17.14;53.62
78123;BME280;67376;44.802;10.332;2023-03-14T07:09:34;99751.88;;;16.81;54.75
78123;BME280;67376;44.802;10.332;2023-03-14T07:11:59;99748.03;;;16.77;55.19
78123;BME280;67376;44.802;10.332;2023-03-14T07:14:25;99752.41;;;17.46;53.42
78123;BME280;67376;44.802;10.332;2023-03-14T07:16:50;99767.38;;;18.11;51.56
78123;BME280;67376;44.802;10.332;2023-03-14T07:19:16;99752.00;;;18.45;50.22
78123;BME280;67376;44.802;10.332;2023-03-14T07:21:41;99755.59;;;18.67;50.43
78123;BME280;67376;44.802;10.332;2023-03-14T07:24:07;99750.66;;;18.81;48.94
78123;BME280;67376;44.802;10.332;2023-03-14T07:26:32;99750.78;;;18.91;49.28
78123;BME280;67376;44.802;10.332;2023-03-14T07:28:58;99749.28;;;19.00;48.91
78123;BME280;67376;44.802;10.332;2023-03-14T07:31:23;99735.81;;;19.05;48.95
78123;BME280;67376;44.802;10.332;2023-03-14T07:33:49;99739.38;;;19.11;48.40
78123;BME280;67376;44.802;10.332;2023-03-14T07:36:14;99725.09;;;19.16;48.94
78123;BME280;67376;44.802;10.332;2023-03-14T07:38:40;99730.81;;;19.19;47.89
78123;BME280;67376;44.802;10.332;2023-03-14T07:41:06;99727.06;;;19.20;48.46
78123;BME280;67376;44.802;10.332;2023-03-14T07:43:32;99734.91;;;19.22;48.51
78123;BME280;67376;44.802;10.332;2023-03-14T07:45:58;99739.56;;;19.26;48.51
78123;BME280;67376;44.802;10.332;2023-03-14T07:48:23;99745.31;;;19.30;48.03
78123;BME280;67376;44.802;10.332;2023-03-14T07:50:54;99735.03;;;19.32;48.53
78123;BME280;67376;44.802;10.332;2023-03-14T07:53:20;99742.91;;;19.33;48.23
78123;BME280;67376;44.802;10.332;2023-03-14T07:55:47;99729.69;;;19.37;48.00
78123;BME280;67376;44.802;10.332;2023-03-14T07:58:13;99735.66;;;19.39;48.42
78123;BME280;67376;44.802;10.332;2023-03-14T08:00:39;99725.41;;;19.41;47.98
78123;BME280;67376;44.802;10.332;2023-03-14T08:03:04;99718.91;;;19.42;47.77
78123;BME280;67376;44.802;10.332;2023-03-14T08:05:30;99722.19;;;19.44;48.14
78123;BME280;67376;44.802;10.332;2023-03-14T08:07:55;99728.97;;;19.46;47.69
78123;BME280;67376;44.802;10.332;2023-03-14T08:10:20;99740.38;;;19.49;47.26
78123;BME280;67376;44.802;10.332;2023-03-14T08:12:47;99729.28;;;19.50;48.05
78123;BME280;67376;44.802;10.332;2023-03-14T08:15:12;99726.38;;;19.52;47.21
78123;BME280;67376;44.802;10.332;2023-03-14T08:17:38;99726.13;;;19.53;47.72
78123;BME280;67376;44.802;10.332;2023-03-14T08:20:03;99725.84;;;19.55;47.27
78123;BME280;67376;44.802;10.332;2023-03-14T08:22:32;99737.00;;;19.58;48.16
78123;BME280;67376;44.802;10.332;2023-03-14T08:24:58;99741.34;;;19.64;46.90
78123;BME280;67376;44.802;10.332;2023-03-14T08:27:23;99728.38;;;19.61;47.26
78123;BME280;67376;44.802;10.332;2023-03-14T08:29:48;99729.44;;;19.60;47.48
78123;BME280;67376;44.802;10.332;2023-03-14T08:32:14;99723.50;;;19.63;47.55
78123;BME280;67376;44.802;10.332;2023-03-14T08:34:39;99720.81;;;19.63;46.85
78123;BME280;67376;44.802;10.332;2023-03-14T08:37:05;99727.03;;;19.64;47.05
78123;BME280;67376;44.802;10.332;2023-03-14T08:39:31;99721.06;;;19.62;47.03
78123;BME280;67376;44.802;10.332;2023-03-14T08:41:56;99729.47;;;19.65;47.14
78123;BME280;67376;44.802;10.332;2023-03-14T08:44:22;99732.72;;;19.67;47.47
78123;BME280;67376;44.802;10.332;2023-03-14T08:46:47;99738.16;;;19.67;46.78
78123;BME280;67376;44.802;10.332;2023-03-14T08:49:13;99733.53;;;19.68;46.91
78123;BME280;67376;44.802;10.332;2023-03-14T08:51:40;99741.41;;;19.69;47.40
78123;BME280;67376;44.802;10.332;2023-03-14T08:54:05;99743.31;;;19.69;46.91
78123;BME280;67376;44.802;10.332;2023-03-14T08:56:31;99738.72;;;19.69;47.33
78123;BME280;67376;44.802;10.332;2023-03-14T08:58:56;99739.53;;;19.70;47.67
78123;BME280;67376;44.802;10.332;2023-03-14T09:01:21;99731.41;;;19.70;47.48
78123;BME280;67376;44.802;10.332;2023-03-14T09:03:49;99733.84;;;19.71;47.49
78123;BME280;67376;44.802;10.332;2023-03-14T09:06:15;99740.91;;;19.72;46.72
78123;BME280;67376;44.802;10.332;2023-03-14T09:08:43;99748.78;;;19.74;46.85
78123;BME280;67376;44.802;10.332;2023-03-14T09:11:09;99739.56;;;19.75;46.75
78123;BME280;67376;44.802;10.332;2023-03-14T09:13:35;99743.09;;;19.75;47.20
78123;BME280;67376;44.802;10.332;2023-03-14T09:16:01;99752.03;;;19.76;47.39
78123;BME280;67376;44.802;10.332;2023-03-14T09:18:26;99750.97;;;19.77;46.92
78123;BME280;67376;44.802;10.332;2023-03-14T09:20:52;99752.59;;;19.78;47.36
78123;BME280;67376;44.802;10.332;2023-03-14T09:23:17;99751.53;;;19.79;48.08
78123;BME280;67376;44.802;10.332;2023-03-14T09:25:42;99753.69;;;19.77;48.19
78123;BME280;67376;44.802;10.332;2023-03-14T09:28:08;99763.44;;;19.78;48.15
78123;BME280;67376;44.802;10.332;2023-03-14T09:30:33;99764.25;;;19.78;47.26
78123;BME280;67376;44.802;10.332;2023-03-14T09:32:59;99772.38;;;19.78;47.26
78123;BME280;67376;44.802;10.332;2023-03-14T09:35:24;99768.03;;;19.77;47.41
78123;BME280;67376;44.802;10.332;2023-03-14T09:37:50;99773.19;;;19.79;47.99
78123;BME280;67376;44.802;10.332;2023-03-14T09:40:16;99777.53;;;19.80;47.95
78123;BME280;67376;44.802;10.332;2023-03-14T09:42:43;99784.84;;;19.79;47.90
78123;BME280;67376;44.802;10.332;2023-03-14T09:45:29;99780.25;;;19.80;48.17
78123;BME280;67376;44.802;10.332;2023-03-14T09:47:57;99791.09;;;19.80;47.63
78123;BME280;67376;44.802;10.332;2023-03-14T09:50:25;99789.44;;;19.79;47.47
78123;BME280;67376;44.802;10.332;2023-03-14T09:53:01;99782.72;;;19.82;47.91
78123;BME280;67376;44.802;10.332;2023-03-14T09:55:27;99780.25;;;19.80;48.18
78123;BME280;67376;44.802;10.332;2023-03-14T09:58:02;99795.19;;;19.83;48.33
78123;BME280;67376;44.802;10.332;2023-03-14T10:00:30;99797.88;;;19.83;47.80
78123;BME280;67376;44.802;10.332;2023-03-14T10:03:04;99781.63;;;19.83;47.48
78123;BME280;67376;44.802;10.332;2023-03-14T10:05:40;99775.41;;;19.82;47.34
78123;BME280;67376;44.802;10.332;2023-03-14T10:08:05;99774.03;;;19.79;47.77
78123;BME280;67376;44.802;10.332;2023-03-14T10:10:32;99773.25;;;19.84;48.10
78123;BME280;67376;44.802;10.332;2023-03-14T10:13:21;99776.53;;;19.86;48.34
78123;BME280;67376;44.802;10.332;2023-03-14T10:15:54;99765.44;;;19.88;47.02
78123;BME280;67376;44.802;10.332;2023-03-14T10:18:22;99776.00;;;19.89;48.15
78123;BME280;67376;44.802;10.332;2023-03-14T10:20:49;99774.13;;;19.90;47.52
78123;BME280;67376;44.802;10.332;2023-03-14T10:23:28;99776.84;;;19.90;47.43
78123;BME280;67376;44.802;10.332;2023-03-14T10:28:31;99771.16;;;19.91;47.27
78123;BME280;67376;44.802;10.332;2023-03-14T10:30:58;99768.72;;;19.90;47.69
78123;BME280;67376;44.802;10.332;2023-03-14T10:33:29;99766.56;;;19.92;47.24
78123;BME280;67376;44.802;10.332;2023-03-14T10:36:38;99765.75;;;19.91;47.32
78123;BME280;67376;44.802;10.332;2023-03-14T10:38:44;99746.78;;;19.91;47.44
78123;BME280;67376;44.802;10.332;2023-03-14T10:41:16;99733.78;;;19.93;47.74
78123;BME280;67376;44.802;10.332;2023-03-14T10:43:43;99736.50;;;19.93;47.11
78123;BME280;67376;44.802;10.332;2023-03-14T10:46:11;99738.13;;;19.94;47.34
78123;BME280;67376;44.802;10.332;2023-03-14T10:48:39;99741.66;;;19.95;47.81
78123;BME280;67376;44.802;10.332;2023-03-14T10:53:41;99719.75;;;19.96;47.91
78123;BME280;67376;44.802;10.332;2023-03-14T10:56:10;99711.59;;;19.96;47.46
78123;BME280;67376;44.802;10.332;2023-03-14T10:58:41;99707.00;;;19.97;47.53
78123;BME280;67376;44.802;10.332;2023-03-14T11:09:36;99697.00;;;19.97;47.48
78123;BME280;67376;44.802;10.332;2023-03-14T11:15:11;99703.44;;;19.91;48.14
78123;BME280;67376;44.802;10.332;2023-03-14T11:23:13;99689.59;;;19.88;47.71
78123;BME280;67376;44.802;10.332;2023-03-14T11:26:25;99691.22;;;19.89;47.44
78123;BME280;67376;44.802;10.332;2023-03-14T11:28:50;99688.50;;;19.89;47.05
78123;BME280;67376;44.802;10.332;2023-03-14T11:31:20;99685.81;;;19.89;48.06
78123;BME280;67376;44.802;10.332;2023-03-14T11:34:03;99685.25;;;19.87;47.32
78123;BME280;67376;44.802;10.332;2023-03-14T11:36:41;99664.66;;;19.86;48.13
78123;BME280;67376;44.802;10.332;2023-03-14T11:39:15;99670.63;;;19.88;47.81
78123;BME280;67376;44.802;10.332;2023-03-14T11:41:43;99665.22;;;19.88;47.52
78123;BME280;67376;44.802;10.332;2023-03-14T11:44:20;99660.88;;;19.87;47.05
78123;BME280;67376;44.802;10.332;2023-03-14T11:49:39;99667.91;;;19.88;47.70
78123;BME280;67376;44.802;10.332;2023-03-14T11:52:10;99660.88;;;19.87;47.71
78123;BME280;67376;44.802;10.332;2023-03-14T11:54:48;99660.88;;;19.87;47.03
78123;BME280;67376;44.802;10.332;2023-03-14T11:57:18;99645.69;;;19.86;46.78
78123;BME280;67376;44.802;10.332;2023-03-14T12:02:32;99648.97;;;19.88;47.08
78123;BME280;67376;44.802;10.332;2023-03-14T12:10:26;99644.91;;;19.90;47.72
78123;BME280;67376;44.802;10.332;2023-03-14T12:12:51;99649.78;;;19.88;47.70
78123;BME280;67376;44.802;10.332;2023-03-14T12:15:21;99638.13;;;19.88;47.42
78123;BME280;67376;44.802;10.332;2023-03-14T12:17:53;99637.88;;;19.89;47.91
78123;BME280;67376;44.802;10.332;2023-03-14T12:20:22;99633.25;;;19.90;47.40
78123;BME280;67376;44.802;10.332;2023-03-14T12:22:50;99639.75;;;19.89;47.91
78123;BME280;67376;44.802;10.332;2023-03-14T12:25:22;99637.03;;;19.89;47.70
78123;BME280;67376;44.802;10.332;2023-03-14T12:30:38;99635.16;;;19.89;47.18
78123;BME280;67376;44.802;10.332;2023-03-14T12:38:13;99627.03;;;19.89;47.29
78123;BME280;67376;44.802;10.332;2023-03-14T12:43:33;99627.03;;;19.89;47.06
78123;BME280;67376;44.802;10.332;2023-03-14T12:48:45;99622.44;;;19.90;47.87
78123;BME280;67376;44.802;10.332;2023-03-14T12:51:16;99627.03;;;19.89;47.59
78123;BME280;67376;44.802;10.332;2023-03-14T12:54:00;99623.50;;;19.89;47.46
78123;BME280;67376;44.802;10.332;2023-03-14T13:04:46;99618.34;;;19.87;46.98
78123;BME280;67376;44.802;10.332;2023-03-14T13:08:19;99626.22;;;19.89;47.29
78123;BME280;67376;44.802;10.332;2023-03-14T13:10:39;99619.16;;;19.88;48.04
78123;BME280;67376;44.802;10.332;2023-03-14T13:13:22;99622.69;;;19.88;47.26
78123;BME280;67376;44.802;10.332;2023-03-14T13:15:49;99626.22;;;19.89;47.09
78123;BME280;67376;44.802;10.332;2023-03-14T13:18:34;99620.78;;;19.89;47.32
78123;BME280;67376;44.802;10.332;2023-03-14T13:23:35;99610.78;;;19.89;47.95
78123;BME280;67376;44.802;10.332;2023-03-14T13:26:02;99606.19;;;19.90;47.09
78123;BME280;67376;44.802;10.332;2023-03-14T13:28:29;99607.00;;;19.90;47.29
78123;BME280;67376;44.802;10.332;2023-03-14T13:30:58;99598.88;;;19.90;47.71
78123;BME280;67376;44.802;10.332;2023-03-14T13:33:23;99596.72;;;19.92;47.92
78123;BME280;67376;44.802;10.332;2023-03-14T13:35:55;99582.34;;;19.92;47.04
78123;BME280;67376;44.802;10.332;2023-03-14T13:38:27;99584.81;;;19.93;47.68
78123;BME280;67376;44.802;10.332;2023-03-14T13:40:57;99576.13;;;19.91;47.10
78123;BME280;67376;44.802;10.332;2023-03-14T13:43:33;99565.28;;;19.91;47.29
78123;BME280;67376;44.802;10.332;2023-03-14T13:46:14;99569.63;;;19.92;47.30
78123;BME280;67376;44.802;10.332;2023-03-14T13:48:59;99572.06;;;19.94;47.71
78123;BME280;67376;44.802;10.332;2023-03-14T13:51:27;99571.25;;;19.93;47.01
78123;BME280;67376;44.802;10.332;2023-03-14T13:53:57;99578.56;;;19.93;46.87
78123;BME280;67376;44.802;10.332;2023-03-14T13:56:26;99570.44;;;19.93;47.66
78123;BME280;67376;44.802;10.332;2023-03-14T13:58:52;99568.53;;;19.93;47.08
78123;BME280;67376;44.802;10.332;2023-03-14T14:01:25;99565.84;;;19.93;47.10
78123;BME280;67376;44.802;10.332;2023-03-14T14:03:53;99580.19;;;19.94;46.54